createdAt,value
2018-09-08T00:02:17.054Z,13.38
2018-09-08T00:04:45.534Z,13.44
2018-09-08T00:07:19.223Z,13.38
2018-09-08T00:09:47.635Z,13.22
2018-09-08T00:12:16.066Z,13.26
2018-09-08T00:14:43.782Z,13.18
2018-09-08T00:17:17.539Z,13.13
2018-09-08T00:19:51.096Z,13.16
2018-09-08T00:22:24.846Z,13.07
2018-09-08T00:24:58.850Z,13.14
2018-09-08T00:27:31.400Z,12.70
2018-09-08T00:30:01.823Z,12.87
2018-09-08T00:32:30.314Z,12.85
2018-09-08T00:34:58.715Z,12.81
2018-09-08T00:37:27.310Z,12.79
2018-09-08T00:39:55.791Z,12.64
2018-09-08T00:42:24.266Z,12.50
2018-09-08T00:44:52.832Z,12.50
2018-09-08T00:47:21.291Z,12.50
2018-09-08T00:49:49.756Z,12.26
2018-09-08T00:52:18.426Z,12.20
2018-09-08T00:54:46.895Z,12.15
2018-09-08T00:57:15.302Z,12.10
2018-09-08T00:59:43.924Z,11.88
2018-09-08T01:02:12.426Z,11.89
2018-09-08T01:04:40.910Z,11.84
2018-09-08T01:07:14.744Z,11.84
2018-09-08T01:09:43.186Z,11.82
2018-09-08T01:12:11.606Z,11.79
2018-09-08T01:14:40.163Z,11.78
2018-09-08T01:17:08.636Z,11.76
2018-09-08T01:19:37.118Z,11.68
2018-09-08T01:22:05.795Z,11.50
2018-09-08T01:24:34.202Z,11.62
2018-09-08T01:27:02.590Z,11.63
2018-09-08T01:29:31.219Z,11.41
2018-09-08T01:31:59.712Z,11.41
2018-09-08T01:34:28.219Z,11.43
2018-09-08T01:36:56.747Z,11.36
2018-09-08T01:39:25.174Z,11.30
2018-09-08T01:41:53.627Z,11.33
2018-09-08T01:44:22.231Z,11.34
2018-09-08T01:46:50.659Z,11.39
2018-09-08T01:49:19.066Z,11.40
2018-09-08T01:51:47.711Z,11.42
2018-09-08T01:54:16.214Z,11.39
2018-09-08T01:56:44.635Z,11.37
2018-09-08T01:59:13.300Z,11.29
2018-09-08T02:01:41.810Z,11.18
2018-09-08T02:04:10.233Z,11.11
2018-09-08T02:06:40.922Z,11.24
2018-09-08T02:09:09.782Z,11.11
2018-09-08T02:11:38.263Z,11.10
2018-09-08T02:14:07.130Z,11.02
2018-09-08T02:16:35.511Z,11.08
2018-09-08T02:19:03.920Z,11.03
2018-09-08T02:21:32.598Z,11.00
2018-09-08T02:24:01.011Z,10.94
2018-09-08T02:26:29.540Z,11.06
2018-09-08T02:28:58.291Z,11.04
2018-09-08T02:31:26.704Z,11.07
2018-09-08T02:33:55.103Z,11.06
2018-09-08T02:36:23.523Z,10.87
2018-09-08T02:38:51.992Z,10.85
2018-09-08T02:41:20.423Z,10.74
2018-09-08T02:43:49.050Z,10.73
2018-09-08T02:46:17.596Z,10.58
2018-09-08T02:48:46.067Z,10.68
2018-09-08T02:51:13.627Z,10.54
2018-09-08T02:53:40.838Z,10.54
2018-09-08T02:56:08.044Z,10.53
2018-09-08T02:58:35.279Z,10.43
2018-09-08T03:01:04.051Z,10.48
2018-09-08T03:03:31.334Z,10.47
2018-09-08T03:05:58.568Z,10.36
2018-09-08T03:08:25.772Z,10.30
2018-09-08T03:10:53.024Z,10.40
2018-09-08T03:13:20.426Z,10.18
2018-09-08T03:15:47.631Z,10.24
2018-09-08T03:18:14.875Z,10.27
2018-09-08T03:20:42.219Z,10.14
2018-09-08T03:23:09.439Z,10.18
2018-09-08T03:25:36.711Z,10.16
2018-09-08T03:28:04.120Z,10.21
2018-09-08T03:30:31.362Z,10.22
2018-09-08T03:32:58.567Z,10.20
2018-09-08T03:35:25.795Z,10.42
2018-09-08T03:37:53.024Z,10.47
2018-09-08T03:40:20.315Z,10.16
2018-09-08T03:42:47.726Z,10.03
2018-09-08T03:45:14.934Z,10.04
2018-09-08T03:47:42.206Z,10.03
2018-09-08T03:50:09.475Z,10.17
2018-09-08T03:52:36.715Z,9.98
2018-09-08T03:55:03.939Z,9.92
2018-09-08T03:57:31.299Z,9.74
2018-09-08T03:59:58.539Z,9.96
2018-09-08T04:02:25.764Z,9.78
2018-09-08T04:04:54.426Z,9.83
2018-09-08T04:07:22.903Z,9.90
2018-09-08T04:09:51.354Z,9.82
2018-09-08T04:12:19.843Z,9.94
2018-09-08T04:14:48.309Z,10.01
2018-09-08T04:17:16.818Z,9.97
2018-09-08T04:19:45.482Z,9.86
2018-09-08T04:22:13.934Z,9.83
2018-09-08T04:24:42.388Z,9.71
2018-09-08T04:27:11.051Z,9.90
2018-09-08T04:29:39.516Z,9.81
2018-09-08T04:32:08.067Z,9.97
2018-09-08T04:34:36.626Z,9.87
2018-09-08T04:37:05.098Z,9.91
2018-09-08T04:39:33.515Z,9.89
2018-09-08T04:42:02.131Z,10.07
2018-09-08T04:44:30.654Z,9.99
2018-09-08T04:46:59.179Z,9.79
2018-09-08T04:49:27.826Z,9.76
2018-09-08T04:51:56.249Z,9.80
2018-09-08T04:54:24.750Z,9.76
2018-09-08T04:56:53.821Z,9.80
2018-09-08T04:59:22.243Z,9.73
2018-09-08T05:01:50.647Z,9.86
2018-09-08T05:04:19.599Z,9.77
2018-09-08T05:06:48.011Z,9.89
2018-09-08T05:09:17.609Z,9.90
2018-09-08T05:11:46.143Z,9.90
2018-09-08T05:14:14.628Z,9.72
2018-09-08T05:16:43.111Z,9.68
2018-09-08T05:19:11.674Z,9.68
2018-09-08T05:21:40.119Z,10.04
2018-09-08T05:24:08.867Z,10.70
2018-09-08T05:26:37.486Z,11.29
2018-09-08T05:29:06.010Z,11.34
2018-09-08T05:31:34.490Z,12.05
2018-09-08T05:34:02.961Z,12.14
2018-09-08T05:36:31.358Z,12.08
2018-09-08T05:38:59.787Z,12.18
2018-09-08T05:41:28.444Z,12.16
2018-09-08T05:43:56.842Z,12.09
2018-09-08T05:46:25.383Z,11.92
2018-09-08T05:48:54.049Z,11.88
2018-09-08T05:51:22.486Z,12.55
2018-09-08T05:53:50.935Z,12.59
2018-09-08T05:56:19.612Z,12.24
2018-09-08T05:58:48.126Z,12.10
2018-09-08T06:01:16.545Z,12.02
2018-09-08T06:03:45.190Z,12.13
2018-09-08T06:06:13.594Z,12.72
2018-09-08T06:08:42.167Z,12.14
2018-09-08T06:11:10.662Z,12.61
2018-09-08T06:13:39.103Z,12.34
2018-09-08T06:16:07.754Z,12.23
2018-09-08T06:18:36.213Z,12.63
2018-09-08T06:21:04.809Z,12.33
2018-09-08T06:23:33.246Z,12.89
2018-09-08T06:26:01.678Z,12.06
2018-09-08T06:28:30.128Z,11.89
2018-09-08T06:30:58.953Z,11.93
2018-09-08T06:33:27.547Z,11.94
2018-09-08T06:35:55.935Z,12.16
2018-09-08T06:38:24.323Z,12.44
2018-09-08T06:40:52.930Z,12.72
2018-09-08T06:43:21.530Z,12.48
2018-09-08T06:45:50.166Z,12.48
2018-09-08T06:48:18.915Z,12.76
2018-09-08T06:50:47.464Z,12.73
2018-09-08T06:53:15.935Z,12.48
2018-09-08T06:55:44.469Z,12.46
2018-09-08T06:58:12.931Z,12.36
2018-09-08T07:00:41.419Z,12.79
2018-09-08T07:03:09.923Z,12.72
2018-09-08T07:05:38.406Z,12.92
2018-09-08T07:08:06.871Z,12.85
2018-09-08T07:10:35.501Z,12.94
2018-09-08T07:13:03.967Z,12.89
2018-09-08T07:15:32.499Z,12.81
2018-09-08T07:18:01.155Z,12.99
2018-09-08T07:20:29.754Z,13.12
2018-09-08T07:22:58.186Z,12.73
2018-09-08T07:25:26.674Z,12.90
2018-09-08T07:27:55.163Z,12.84
2018-09-08T07:30:23.638Z,12.96
2018-09-08T07:32:52.258Z,12.85
2018-09-08T07:35:20.679Z,13.03
2018-09-08T07:37:49.122Z,12.78
2018-09-08T07:40:17.624Z,13.25
2018-09-08T07:42:46.094Z,13.57
2018-09-08T07:45:14.631Z,13.37
2018-09-08T07:47:43.668Z,13.74
2018-09-08T07:50:12.120Z,14.30
2018-09-08T07:52:40.583Z,14.14
2018-09-08T07:55:09.217Z,13.77
2018-09-08T07:57:38.001Z,13.82
2018-09-08T08:00:06.554Z,14.03
2018-09-08T08:02:37.155Z,14.64
2018-09-08T08:05:05.626Z,14.38
2018-09-08T08:07:34.159Z,14.59
2018-09-08T08:10:02.583Z,14.85
2018-09-08T08:12:31.024Z,15.27
2018-09-08T08:14:59.435Z,15.59
2018-09-08T08:17:28.059Z,15.55
2018-09-08T08:19:56.483Z,15.37
2018-09-08T08:22:25.092Z,15.68
2018-09-08T08:24:53.640Z,15.69
2018-09-08T08:27:22.098Z,15.34
2018-09-08T08:29:50.505Z,15.31
2018-09-08T08:32:19.229Z,16.01
2018-09-08T08:34:47.630Z,15.91
2018-09-08T08:37:16.136Z,15.99
2018-09-08T08:39:44.743Z,16.04
2018-09-08T08:42:13.478Z,16.08
2018-09-08T08:44:41.883Z,16.29
2018-09-08T08:47:10.355Z,16.53
2018-09-08T08:49:38.873Z,16.82
2018-09-08T08:52:18.763Z,17.43
2018-09-08T08:54:49.063Z,17.34
2018-09-08T08:57:18.135Z,16.81
2018-09-08T08:59:46.886Z,17.39
2018-09-08T09:02:15.319Z,17.64
2018-09-08T09:04:43.992Z,17.25
2018-09-08T09:07:13.446Z,17.58
2018-09-08T09:09:43.311Z,17.99
2018-09-08T09:12:11.800Z,18.06
2018-09-08T09:14:40.813Z,17.98
2018-09-08T09:17:08.882Z,17.88
2018-09-08T09:19:48.625Z,18.52
2018-09-08T09:22:29.354Z,18.53
2018-09-08T09:25:05.825Z,18.85
2018-09-08T09:27:35.882Z,19.13
2018-09-08T09:30:04.822Z,19.14
2018-09-08T09:32:33.331Z,19.08
2018-09-08T09:35:02.063Z,19.12
2018-09-08T09:37:30.612Z,18.95
2018-09-08T09:39:59.853Z,19.43
2018-09-08T09:42:28.696Z,19.35
2018-09-08T09:44:57.204Z,19.47
2018-09-08T09:47:25.775Z,19.35
2018-09-08T09:49:54.386Z,19.67
2018-09-08T09:52:22.874Z,19.51
2018-09-08T09:54:51.416Z,19.68
2018-09-08T09:57:20.042Z,19.60
2018-09-08T09:59:48.595Z,19.92
2018-09-08T10:02:47.568Z,19.78
2018-09-08T10:05:17.860Z,19.78
2018-09-08T10:07:46.536Z,19.50
2018-09-08T10:10:16.780Z,20.07
2018-09-08T10:12:45.242Z,20.18
2018-09-08T10:15:13.682Z,20.19
2018-09-08T10:17:43.548Z,20.56
2018-09-08T10:20:16.047Z,20.61
2018-09-08T10:22:44.595Z,20.58
2018-09-08T10:25:14.714Z,20.50
2018-09-08T10:27:44.129Z,20.63
2018-09-08T10:30:13.658Z,20.57
2018-09-08T10:32:43.157Z,20.95
2018-09-08T10:35:11.635Z,20.80
2018-09-08T10:37:40.146Z,20.81
2018-09-08T10:40:09.621Z,20.64
2018-09-08T10:42:38.044Z,20.93
2018-09-08T10:45:06.771Z,20.94
2018-09-08T10:47:35.479Z,20.59
2018-09-08T10:50:04.335Z,20.78
2018-09-08T10:52:35.419Z,20.62
2018-09-08T10:55:03.979Z,20.81
2018-09-08T10:57:32.743Z,20.78
2018-09-08T11:00:02.112Z,21.20
2018-09-08T11:02:31.557Z,21.11
2018-09-08T11:05:00.455Z,20.77
2018-09-08T11:07:29.259Z,21.00
2018-09-08T11:09:57.910Z,21.10
2018-09-08T11:12:26.429Z,21.06
2018-09-08T11:14:54.902Z,21.33
2018-09-08T11:17:23.535Z,21.28
2018-09-08T11:19:52.002Z,21.17
2018-09-08T11:22:20.530Z,21.47
2018-09-08T11:24:49.167Z,21.11
2018-09-08T11:27:17.683Z,21.28
2018-09-08T11:29:46.204Z,21.74
2018-09-08T11:32:14.882Z,21.52
2018-09-08T11:34:43.302Z,21.51
2018-09-08T11:37:11.698Z,21.38
2018-09-08T11:39:40.183Z,20.98
2018-09-08T11:42:08.674Z,21.27
2018-09-08T11:44:37.146Z,21.36
2018-09-08T11:47:05.699Z,21.55
2018-09-08T11:49:34.138Z,21.18
2018-09-08T11:52:02.558Z,21.35
2018-09-08T11:54:31.887Z,21.58
2018-09-08T11:57:00.312Z,21.55
2018-09-08T11:59:28.771Z,21.96
2018-09-08T12:01:57.426Z,22.10
2018-09-08T12:04:25.927Z,22.16
2018-09-08T12:06:54.447Z,21.98
2018-09-08T12:09:22.927Z,22.02
2018-09-08T12:11:51.406Z,21.78
2018-09-08T12:14:19.894Z,21.79
2018-09-08T12:16:48.717Z,21.72
2018-09-08T12:19:17.329Z,21.76
2018-09-08T12:21:45.771Z,21.77
2018-09-08T12:24:14.583Z,21.69
2018-09-08T12:26:43.019Z,21.92
2018-09-08T12:29:11.406Z,22.02
2018-09-08T12:31:39.851Z,22.42
2018-09-08T12:34:08.335Z,21.84
2018-09-08T12:36:36.847Z,22.05
2018-09-08T12:39:07.574Z,22.10
2018-09-08T12:41:36.082Z,21.88
2018-09-08T12:44:04.614Z,21.88
2018-09-08T12:46:33.410Z,22.29
2018-09-08T12:49:01.919Z,22.28
2018-09-08T12:51:31.493Z,22.30
2018-09-08T12:54:00.166Z,22.40
2018-09-08T12:56:28.584Z,22.04
2018-09-08T12:59:01.005Z,22.01
2018-09-08T13:01:29.669Z,22.07
2018-09-08T13:03:58.088Z,22.25
2018-09-08T13:06:26.503Z,22.34
2018-09-08T13:09:07.640Z,22.38
2018-09-08T13:11:36.518Z,22.35
2018-09-08T13:14:05.030Z,22.55
2018-09-08T13:16:33.483Z,22.58
2018-09-08T13:19:01.895Z,22.32
2018-09-08T13:21:30.344Z,22.55
2018-09-08T13:23:58.873Z,22.62
2018-09-08T13:26:27.370Z,22.46
2018-09-08T13:28:55.806Z,22.15
2018-09-08T13:31:24.203Z,22.09
2018-09-08T13:33:52.813Z,22.04
2018-09-08T13:36:21.282Z,22.11
2018-09-08T13:38:49.717Z,22.38
2018-09-08T13:41:18.405Z,22.60
2018-09-08T13:43:46.971Z,22.80
2018-09-08T13:46:15.510Z,22.28
2018-09-08T13:48:44.136Z,22.41
2018-09-08T13:51:12.654Z,22.78
2018-09-08T13:53:41.190Z,22.67
2018-09-08T13:56:09.819Z,22.82
2018-09-08T13:58:38.244Z,22.74
2018-09-08T14:01:06.740Z,22.88
2018-09-08T14:03:35.287Z,22.59
2018-09-08T14:06:03.755Z,22.53
2018-09-08T14:08:32.147Z,22.51
2018-09-08T14:11:00.703Z,22.70
2018-09-08T14:13:29.307Z,22.60
2018-09-08T14:15:57.866Z,22.51
2018-09-08T14:18:26.350Z,22.74
2018-09-08T14:20:54.853Z,22.86
2018-09-08T14:23:23.402Z,22.18
2018-09-08T14:25:52.055Z,22.40
2018-09-08T14:28:20.851Z,22.63
2018-09-08T14:30:49.546Z,22.59
2018-09-08T14:33:18.415Z,22.63
2018-09-08T14:35:46.871Z,22.52
2018-09-08T14:38:15.271Z,22.72
2018-09-08T14:40:44.002Z,22.82
2018-09-08T14:43:12.474Z,22.87
2018-09-08T14:45:40.963Z,22.83
2018-09-08T14:48:09.627Z,22.78
2018-09-08T14:50:38.035Z,22.74
2018-09-08T14:53:06.842Z,22.71
2018-09-08T14:55:35.627Z,22.93
2018-09-08T14:58:04.163Z,22.83
2018-09-08T15:00:32.627Z,22.83
2018-09-08T15:03:01.311Z,22.72
2018-09-08T15:05:29.763Z,22.68
2018-09-08T15:07:58.258Z,22.63
2018-09-08T15:10:26.891Z,22.68
2018-09-08T15:12:55.296Z,22.73
2018-09-08T15:15:23.807Z,22.60
2018-09-08T15:17:52.329Z,22.66
2018-09-08T15:20:20.718Z,22.56
2018-09-08T15:22:49.135Z,22.70
2018-09-08T15:25:17.600Z,22.93
2018-09-08T15:27:46.206Z,22.96
2018-09-08T15:30:14.699Z,22.77
2018-09-08T15:32:43.247Z,22.84
2018-09-08T15:35:11.595Z,22.77
2018-09-08T15:37:40.111Z,22.60
2018-09-08T15:40:08.863Z,22.79
2018-09-08T15:42:37.220Z,22.71
2018-09-08T15:45:05.756Z,22.38
2018-09-08T15:47:34.502Z,22.82
2018-09-08T15:50:03.031Z,22.59
2018-09-08T15:52:31.559Z,22.79
2018-09-08T15:55:00.134Z,22.80
2018-09-08T15:57:28.627Z,22.63
2018-09-08T15:59:57.102Z,22.38
2018-09-08T16:02:25.770Z,22.28
2018-09-08T16:04:54.297Z,22.20
2018-09-08T16:07:22.788Z,22.54
2018-09-08T16:09:51.342Z,22.52
2018-09-08T16:12:19.806Z,22.72
2018-09-08T16:14:48.282Z,22.71
2018-09-08T16:17:17.367Z,22.45
2018-09-08T16:19:45.766Z,22.73
2018-09-08T16:22:14.223Z,22.68
2018-09-08T16:24:42.723Z,22.66
2018-09-08T16:27:11.179Z,22.56
2018-09-08T16:29:39.632Z,22.25
2018-09-08T16:32:08.473Z,22.19
2018-09-08T16:34:36.879Z,22.00
2018-09-08T16:37:05.368Z,21.81
2018-09-08T16:39:33.848Z,21.99
2018-09-08T16:42:02.310Z,21.92
2018-09-08T16:44:30.890Z,21.96
2018-09-08T16:46:59.599Z,21.83
2018-09-08T16:49:28.127Z,21.80
2018-09-08T16:51:56.641Z,21.50
2018-09-08T16:54:25.282Z,21.58
2018-09-08T16:56:53.684Z,21.43
2018-09-08T16:59:22.099Z,21.52
2018-09-08T17:01:50.610Z,21.50
2018-09-08T17:04:19.106Z,21.53
2018-09-08T17:06:47.564Z,21.58
2018-09-08T17:09:16.236Z,21.48
2018-09-08T17:11:44.763Z,21.40
2018-09-08T17:14:13.266Z,21.31
2018-09-08T17:16:41.721Z,21.34
2018-09-08T17:19:10.155Z,21.33
2018-09-08T17:21:38.593Z,21.27
2018-09-08T17:24:07.302Z,21.16
2018-09-08T17:26:35.744Z,21.09
2018-09-08T17:29:04.246Z,21.09
2018-09-08T17:31:32.884Z,21.00
2018-09-08T17:34:01.441Z,20.95
2018-09-08T17:36:29.818Z,20.89
2018-09-08T17:38:58.397Z,20.86
2018-09-08T17:41:26.781Z,20.75
2018-09-08T17:43:55.269Z,20.69
2018-09-08T17:46:23.975Z,20.67
2018-09-08T17:48:52.466Z,20.60
2018-09-08T17:51:21.042Z,20.53
2018-09-08T17:53:49.642Z,20.47
2018-09-08T17:56:18.049Z,20.46
2018-09-08T17:58:46.672Z,20.43
2018-09-08T18:01:16.491Z,20.40
2018-09-08T18:03:44.986Z,20.40
2018-09-08T18:06:13.690Z,20.40
2018-09-08T18:08:42.335Z,20.36
2018-09-08T18:11:10.723Z,20.30
2018-09-08T18:13:39.283Z,20.15
2018-09-08T18:16:07.911Z,20.35
2018-09-08T18:18:36.378Z,20.10
2018-09-08T18:21:04.864Z,19.91
2018-09-08T18:23:33.311Z,19.70
2018-09-08T18:26:01.841Z,19.70
2018-09-08T18:28:30.347Z,19.55
2018-09-08T18:30:58.992Z,19.17
2018-09-08T18:33:27.425Z,19.17
2018-09-08T18:35:56.866Z,19.15
2018-09-08T18:38:25.442Z,19.05
2018-09-08T18:40:53.858Z,18.89
2018-09-08T18:43:22.352Z,18.69
2018-09-08T18:45:51.078Z,18.67
2018-09-08T18:48:19.546Z,18.89
2018-09-08T18:50:48.028Z,18.78
2018-09-08T18:53:16.660Z,18.61
2018-09-08T18:55:45.187Z,18.60
2018-09-08T18:58:13.690Z,18.64
2018-09-08T19:00:42.234Z,18.29
2018-09-08T19:03:10.699Z,18.26
2018-09-08T19:05:39.172Z,18.10
2018-09-08T19:08:07.691Z,18.18
2018-09-08T19:10:36.390Z,17.90
2018-09-08T19:13:05.545Z,17.93
2018-09-08T19:15:34.150Z,17.81
2018-09-08T19:18:02.694Z,17.80
2018-09-08T19:20:36.534Z,18.08
2018-09-08T19:23:05.152Z,17.62
2018-09-08T19:25:33.657Z,17.54
2018-09-08T19:28:02.362Z,17.29
2018-09-08T19:30:30.875Z,17.32
2018-09-08T19:32:59.361Z,17.26
2018-09-08T19:35:33.051Z,17.25
2018-09-08T19:38:01.562Z,17.18
2018-09-08T19:40:35.357Z,17.17
2018-09-08T19:43:03.910Z,17.10
2018-09-08T19:45:32.347Z,16.61
2018-09-08T19:48:04.274Z,16.25
2018-09-08T19:50:33.295Z,16.30
2018-09-08T19:53:07.161Z,16.23
2018-09-08T19:55:35.942Z,16.15
2018-09-08T19:58:09.909Z,15.97
2018-09-08T20:00:38.438Z,16.04
2018-09-08T20:03:07.092Z,16.00
2018-09-08T20:05:35.743Z,16.01
2018-09-08T20:08:04.355Z,16.02
2018-09-08T20:10:32.915Z,15.92
2018-09-08T20:13:01.338Z,15.93
2018-09-08T20:15:29.904Z,16.02
2018-09-08T20:17:58.386Z,15.94
2018-09-08T20:20:27.047Z,15.77
2018-09-08T20:22:55.472Z,15.68
2018-09-08T20:25:23.983Z,15.59
2018-09-08T20:27:52.466Z,15.54
2018-09-08T20:30:20.947Z,15.93
2018-09-08T20:32:49.407Z,15.85
2018-09-08T20:35:18.072Z,15.59
2018-09-08T20:37:46.504Z,15.55
2018-09-08T20:40:15.936Z,15.52
2018-09-08T20:42:44.473Z,15.78
2018-09-08T20:45:12.940Z,15.86
2018-09-08T20:47:41.406Z,15.62
2018-09-08T20:50:09.900Z,15.45
2018-09-08T20:52:38.402Z,15.37
2018-09-08T20:55:06.922Z,15.23
2018-09-08T20:57:35.574Z,15.27
2018-09-08T21:00:04.126Z,15.28
2018-09-08T21:02:32.582Z,15.24
2018-09-08T21:05:01.123Z,15.32
2018-09-08T21:07:29.563Z,15.23
2018-09-08T21:09:58.025Z,15.21
2018-09-08T21:12:26.736Z,15.08
2018-09-08T21:14:55.267Z,15.15
2018-09-08T21:17:23.682Z,15.04
2018-09-08T21:19:52.415Z,15.08
2018-09-08T21:22:20.946Z,15.00
2018-09-08T21:24:49.470Z,15.01
2018-09-08T21:27:18.167Z,14.92
2018-09-08T21:29:46.555Z,15.02
2018-09-08T21:32:14.962Z,14.90
2018-09-08T21:34:43.602Z,15.04
2018-09-08T21:37:12.154Z,14.95
2018-09-08T21:39:40.629Z,14.71
2018-09-08T21:42:09.127Z,14.65
2018-09-08T21:44:37.618Z,14.68
2018-09-08T21:47:06.161Z,14.74
2018-09-08T21:49:34.601Z,14.68
2018-09-08T21:52:03.011Z,14.57
2018-09-08T21:54:31.479Z,14.40
2018-09-08T21:57:00.136Z,14.35
2018-09-08T21:59:28.585Z,14.38
2018-09-08T22:01:57.123Z,14.37
2018-09-08T22:04:25.726Z,14.23
2018-09-08T22:06:54.211Z,14.15
2018-09-08T22:09:22.656Z,14.18
2018-09-08T22:11:51.326Z,14.01
2018-09-08T22:14:19.879Z,13.85
2018-09-08T22:16:48.299Z,13.88
2018-09-08T22:19:16.858Z,13.89
2018-09-08T22:21:45.333Z,13.70
2018-09-08T22:24:13.926Z,13.70
2018-09-08T22:26:42.449Z,13.64
2018-09-08T22:29:10.902Z,13.65
2018-09-08T22:31:39.411Z,13.75
2018-09-08T22:34:07.890Z,13.87
2018-09-08T22:36:36.378Z,13.85
2018-09-08T22:39:06.955Z,13.90
2018-09-08T22:41:35.444Z,13.95
2018-09-08T22:44:03.898Z,14.07
2018-09-08T22:46:32.575Z,14.03
2018-09-08T22:49:00.992Z,14.09
2018-09-08T22:51:29.602Z,13.94
2018-09-08T22:53:58.279Z,13.95
2018-09-08T22:56:26.766Z,13.98
2018-09-08T22:58:55.314Z,13.92
2018-09-08T23:01:23.943Z,13.91
2018-09-08T23:03:52.331Z,13.53
2018-09-08T23:06:20.878Z,13.60
2018-09-08T23:08:49.428Z,13.65
2018-09-08T23:11:18.103Z,13.75
2018-09-08T23:13:46.509Z,14.06
2018-09-08T23:16:15.018Z,13.89
2018-09-08T23:18:43.538Z,13.72
2018-09-08T23:21:12.030Z,13.66
2018-09-08T23:23:40.534Z,13.62
2018-09-08T23:26:09.123Z,13.43
2018-09-08T23:28:37.858Z,13.59
2018-09-08T23:31:06.623Z,13.65
2018-09-08T23:33:35.056Z,13.49
2018-09-08T23:36:03.539Z,13.27
2018-09-08T23:38:32.011Z,13.47
2018-09-08T23:41:00.506Z,13.54
2018-09-08T23:43:29.039Z,13.57
2018-09-08T23:45:57.519Z,13.38
2018-09-08T23:48:25.954Z,13.36
2018-09-08T23:50:54.338Z,13.30
2018-09-08T23:53:22.862Z,13.55
2018-09-08T23:55:51.350Z,13.38
2018-09-08T23:58:19.871Z,13.42
